createdAt,value
2022-10-30T00:00:20.024Z,18.06
2022-10-30T00:01:20.116Z,18.07
2022-10-30T00:02:20.173Z,18.08
2022-10-30T00:03:20.107Z,18.09
2022-10-30T00:04:20.046Z,18.12
2022-10-30T00:05:20.048Z,18.15
2022-10-30T00:06:20.050Z,18.17
2022-10-30T00:07:20.047Z,18.19
2022-10-30T00:08:20.055Z,18.24
2022-10-30T00:09:20.107Z,18.29
2022-10-30T00:10:20.029Z,18.32
2022-10-30T00:11:20.039Z,18.36
2022-10-30T00:12:20.020Z,18.41
2022-10-30T00:13:20.023Z,18.43
2022-10-30T00:14:20.019Z,18.44
2022-10-30T00:15:20.018Z,18.44
2022-10-30T00:16:20.028Z,18.45
2022-10-30T00:17:20.036Z,18.47
2022-10-30T00:18:20.033Z,18.52
2022-10-30T00:19:20.067Z,18.55
2022-10-30T00:20:20.035Z,18.6
2022-10-30T00:21:20.176Z,18.64
2022-10-30T00:22:20.033Z,18.66
2022-10-30T00:23:20.019Z,18.66
2022-10-30T00:24:20.037Z,18.65
2022-10-30T00:25:20.024Z,18.64
2022-10-30T00:26:20.035Z,18.62
2022-10-30T00:27:20.037Z,18.6
2022-10-30T00:28:20.030Z,18.57
2022-10-30T00:29:20.077Z,18.55
2022-10-30T00:30:20.217Z,18.55
2022-10-30T00:31:20.095Z,18.55
2022-10-30T00:32:20.185Z,18.58
2022-10-30T00:33:20.072Z,18.6
2022-10-30T00:34:20.330Z,18.63
2022-10-30T00:35:20.634Z,18.65
2022-10-30T00:36:20.909Z,18.66
2022-10-30T00:37:20.031Z,18.67
2022-10-30T00:38:20.268Z,18.68
2022-10-30T00:39:20.034Z,18.69
2022-10-30T00:40:20.060Z,18.69
2022-10-30T00:41:20.030Z,18.69
2022-10-30T00:42:20.032Z,18.72
2022-10-30T00:43:20.118Z,18.74
2022-10-30T00:44:20.049Z,18.76
2022-10-30T00:45:20.056Z,18.77
2022-10-30T00:46:20.029Z,18.77
2022-10-30T00:47:20.019Z,18.77
2022-10-30T00:48:20.033Z,18.76
2022-10-30T00:49:20.027Z,18.76
2022-10-30T00:50:20.074Z,18.75
2022-10-30T00:51:20.037Z,18.76
2022-10-30T00:52:20.051Z,18.78
2022-10-30T00:53:20.049Z,18.81
2022-10-30T00:54:20.034Z,18.83
2022-10-30T00:55:20.126Z,18.82
2022-10-30T00:56:20.038Z,18.82
2022-10-30T00:57:20.031Z,18.83
2022-10-30T00:58:20.042Z,18.84
2022-10-30T00:59:20.022Z,18.87
2022-10-30T01:00:20.038Z,18.9
2022-10-30T01:01:20.158Z,18.93
2022-10-30T01:02:20.150Z,18.94
2022-10-30T01:03:20.016Z,18.95
2022-10-30T01:04:20.027Z,18.98
2022-10-30T01:05:20.010Z,18.98
2022-10-30T01:06:20.026Z,18.99
2022-10-30T01:07:20.023Z,19
2022-10-30T01:08:20.117Z,19.02
2022-10-30T01:09:20.035Z,19.04
2022-10-30T01:10:20.036Z,19.05
2022-10-30T01:11:20.026Z,19.05
2022-10-30T01:12:20.018Z,19.05
2022-10-30T01:13:20.051Z,19.05
2022-10-30T01:14:20.021Z,19.04
2022-10-30T01:15:20.024Z,19.03
2022-10-30T01:16:20.020Z,19.02
2022-10-30T01:17:20.026Z,19.01
2022-10-30T01:18:20.075Z,19.01
2022-10-30T01:19:20.011Z,19
2022-10-30T01:20:20.031Z,18.97
2022-10-30T01:21:20.023Z,18.93
2022-10-30T01:22:20.120Z,18.91
2022-10-30T01:23:20.076Z,18.89
2022-10-30T01:24:20.016Z,18.87
2022-10-30T01:25:20.035Z,18.84
2022-10-30T01:26:20.035Z,18.81
2022-10-30T01:27:20.237Z,18.78
2022-10-30T01:28:20.442Z,18.75
2022-10-30T01:29:20.721Z,18.72
2022-10-30T01:30:19.954Z,18.7
2022-10-30T01:31:20.337Z,18.7
2022-10-30T01:32:20.527Z,18.69
2022-10-30T01:33:20.083Z,18.68
2022-10-30T01:34:20.059Z,18.66
2022-10-30T01:35:20.129Z,18.64
2022-10-30T01:36:20.027Z,18.64
2022-10-30T01:37:20.027Z,18.63
2022-10-30T01:38:20.042Z,18.62
2022-10-30T01:39:20.028Z,18.6
2022-10-30T01:40:20.030Z,18.54
2022-10-30T01:41:20.042Z,18.52
2022-10-30T01:42:20.026Z,18.49
2022-10-30T01:43:20.047Z,18.45
2022-10-30T01:44:20.038Z,18.43
2022-10-30T01:45:20.036Z,18.4
2022-10-30T01:46:20.049Z,18.37
2022-10-30T01:47:20.137Z,18.33
2022-10-30T01:48:20.082Z,18.3
2022-10-30T01:49:20.036Z,18.28
2022-10-30T01:50:20.029Z,18.24
2022-10-30T01:51:20.043Z,18.21
2022-10-30T01:52:20.024Z,18.17
2022-10-30T01:53:20.051Z,18.14
2022-10-30T01:54:20.028Z,18.13
2022-10-30T01:55:20.034Z,18.12
2022-10-30T01:56:20.023Z,18.13
2022-10-30T01:57:20.042Z,18.12
2022-10-30T01:58:20.108Z,18.11
2022-10-30T01:59:20.029Z,18.09
2022-10-30T02:00:20.364Z,18.05
2022-10-30T02:01:20.268Z,18.02
2022-10-30T02:02:20.372Z,17.98
2022-10-30T02:03:20.526Z,17.96
2022-10-30T02:04:20.063Z,17.94
2022-10-30T02:05:20.351Z,17.92
2022-10-30T02:06:20.031Z,17.94
2022-10-30T02:07:20.034Z,17.98
2022-10-30T02:08:20.105Z,18
2022-10-30T02:09:20.060Z,18.01
2022-10-30T02:10:20.120Z,18
2022-10-30T02:11:20.031Z,17.99
2022-10-30T02:12:20.324Z,17.97
2022-10-30T02:13:20.019Z,17.95
2022-10-30T02:14:20.269Z,17.94
2022-10-30T02:15:20.579Z,17.95
2022-10-30T02:16:20.341Z,17.94
2022-10-30T02:17:20.647Z,17.95
2022-10-30T02:18:20.069Z,17.99
2022-10-30T02:19:20.370Z,18.01
2022-10-30T02:20:20.200Z,18.04
2022-10-30T02:21:20.034Z,18.07
2022-10-30T02:22:20.095Z,18.08
2022-10-30T02:23:20.267Z,18.06
2022-10-30T02:24:20.063Z,18.03
2022-10-30T02:25:20.043Z,17.99
2022-10-30T02:26:20.047Z,17.93
2022-10-30T02:27:20.416Z,17.86
2022-10-30T02:28:20.064Z,17.79
2022-10-30T02:29:20.051Z,17.72
2022-10-30T02:30:20.160Z,17.65
2022-10-30T02:31:20.036Z,17.58
2022-10-30T02:32:20.041Z,17.52
2022-10-30T02:33:20.046Z,17.5
2022-10-30T02:34:20.039Z,17.49
2022-10-30T02:35:20.030Z,17.45
2022-10-30T02:36:20.034Z,17.4
2022-10-30T02:37:20.028Z,17.36
2022-10-30T02:38:20.038Z,17.37
2022-10-30T02:39:20.033Z,17.38
2022-10-30T02:40:20.036Z,17.42
2022-10-30T02:41:20.030Z,17.45
2022-10-30T02:42:20.048Z,17.48
2022-10-30T02:43:20.023Z,17.48
2022-10-30T02:44:20.025Z,17.45
2022-10-30T02:45:20.030Z,17.4
2022-10-30T02:46:20.025Z,17.36
2022-10-30T02:47:20.040Z,17.34
2022-10-30T02:48:20.025Z,17.32
2022-10-30T02:49:20.036Z,17.32
2022-10-30T02:50:20.034Z,17.37
2022-10-30T02:51:20.036Z,17.41
2022-10-30T02:52:20.032Z,17.44
2022-10-30T02:53:20.042Z,17.45
2022-10-30T02:54:20.138Z,17.48
2022-10-30T02:55:20.043Z,17.46
2022-10-30T02:56:20.033Z,17.43
2022-10-30T02:57:20.041Z,17.38
2022-10-30T02:58:19.999Z,17.32
2022-10-30T02:59:20.037Z,17.26
2022-10-30T03:00:20.038Z,17.2
2022-10-30T03:01:20.194Z,17.13
2022-10-30T03:02:20.081Z,17.05
2022-10-30T03:03:23.999Z,16.97
2022-10-30T03:04:20.027Z,16.9
2022-10-30T03:05:20.058Z,16.84
2022-10-30T03:06:20.035Z,16.78
2022-10-30T03:07:20.034Z,16.71
2022-10-30T03:08:20.065Z,16.68
2022-10-30T03:09:20.034Z,16.68
2022-10-30T03:10:20.041Z,16.7
2022-10-30T03:11:20.028Z,16.71
2022-10-30T03:12:20.032Z,16.71
2022-10-30T03:13:20.016Z,16.68
2022-10-30T03:14:20.033Z,16.67
2022-10-30T03:15:20.047Z,16.64
2022-10-30T03:16:20.041Z,16.63
2022-10-30T03:17:20.042Z,16.62
2022-10-30T03:18:20.035Z,16.6
2022-10-30T03:19:20.044Z,16.58
2022-10-30T03:20:20.053Z,16.59
2022-10-30T03:21:20.055Z,16.64
2022-10-30T03:22:20.040Z,16.68
2022-10-30T03:23:20.009Z,16.71
2022-10-30T03:24:20.026Z,16.72
2022-10-30T03:25:20.081Z,16.71
2022-10-30T03:26:20.031Z,16.71
2022-10-30T03:27:20.022Z,16.71
2022-10-30T03:28:20.028Z,16.71
2022-10-30T03:29:20.031Z,16.72
2022-10-30T03:30:20.047Z,16.72
2022-10-30T03:31:20.047Z,16.69
2022-10-30T03:32:20.095Z,16.65
2022-10-30T03:33:20.026Z,16.59
2022-10-30T03:34:20.039Z,16.52
2022-10-30T03:35:20.031Z,16.45
2022-10-30T03:36:20.038Z,16.36
2022-10-30T03:37:20.031Z,16.32
2022-10-30T03:38:20.006Z,16.35
2022-10-30T03:39:20.027Z,16.4
2022-10-30T03:40:20.030Z,16.5
2022-10-30T03:41:20.029Z,16.56
2022-10-30T03:42:20.029Z,16.59
2022-10-30T03:43:20.144Z,16.61
2022-10-30T03:44:20.028Z,16.62
2022-10-30T03:45:20.432Z,16.62
2022-10-30T03:46:20.029Z,16.62
2022-10-30T03:47:20.338Z,16.63
2022-10-30T03:48:20.168Z,16.63
2022-10-30T03:49:20.444Z,16.62
2022-10-30T03:50:20.698Z,16.59
2022-10-30T03:51:20.365Z,16.59
2022-10-30T03:52:20.033Z,16.58
2022-10-30T03:53:20.304Z,16.55
2022-10-30T03:54:20.029Z,16.53
2022-10-30T03:55:20.050Z,16.51
2022-10-30T03:56:20.044Z,16.47
2022-10-30T03:57:20.040Z,16.46
2022-10-30T03:58:20.007Z,16.47
2022-10-30T03:59:20.049Z,16.45
2022-10-30T04:00:20.054Z,16.43
2022-10-30T04:01:20.133Z,16.41
2022-10-30T04:02:21.043Z,16.4
2022-10-30T04:03:20.007Z,16.38
2022-10-30T04:04:20.019Z,16.36
2022-10-30T04:05:20.031Z,16.33
2022-10-30T04:06:20.027Z,16.29
2022-10-30T04:07:20.027Z,16.27
2022-10-30T04:08:20.009Z,16.24
2022-10-30T04:09:20.034Z,16.2
2022-10-30T04:10:23.860Z,16.17
2022-10-30T04:11:20.139Z,16.15
2022-10-30T04:12:20.051Z,16.14
2022-10-30T04:13:20.046Z,16.14
2022-10-30T04:14:20.166Z,16.12
2022-10-30T04:15:20.042Z,16.11
2022-10-30T04:16:20.029Z,16.09
2022-10-30T04:17:20.042Z,16.05
2022-10-30T04:18:19.997Z,16.01
2022-10-30T04:19:20.032Z,15.97
2022-10-30T04:20:20.029Z,15.9
2022-10-30T04:21:20.031Z,15.83
2022-10-30T04:22:20.041Z,15.77
2022-10-30T04:23:20.014Z,15.68
2022-10-30T04:24:20.033Z,15.6
2022-10-30T04:25:20.031Z,15.49
2022-10-30T04:26:20.054Z,15.39
2022-10-30T04:27:20.040Z,15.29
2022-10-30T04:28:20.261Z,15.2
2022-10-30T04:29:20.023Z,15.11
2022-10-30T04:30:20.036Z,15.04
2022-10-30T04:31:20.037Z,14.98
2022-10-30T04:32:20.033Z,14.91
2022-10-30T04:33:20.004Z,14.84
2022-10-30T04:34:20.032Z,14.76
2022-10-30T04:35:20.028Z,14.69
2022-10-30T04:36:20.028Z,14.61
2022-10-30T04:37:20.029Z,14.52
2022-10-30T04:38:20.034Z,14.48
2022-10-30T04:39:20.052Z,14.49
2022-10-30T04:40:20.041Z,14.55
2022-10-30T04:41:20.054Z,14.61
2022-10-30T04:42:20.026Z,14.66
2022-10-30T04:43:20.321Z,14.7
2022-10-30T04:44:20.434Z,14.72
2022-10-30T04:45:20.697Z,14.75
2022-10-30T04:46:19.997Z,14.78
2022-10-30T04:47:20.415Z,14.82
2022-10-30T04:48:20.574Z,14.89
2022-10-30T04:49:20.061Z,14.94
2022-10-30T04:50:20.029Z,14.97
2022-10-30T04:51:20.052Z,15.01
2022-10-30T04:52:20.031Z,15.04
2022-10-30T04:53:20.056Z,15.07
2022-10-30T04:54:20.043Z,15.13
2022-10-30T04:55:20.054Z,15.16
2022-10-30T04:56:20.022Z,15.19
2022-10-30T04:57:20.031Z,15.2
2022-10-30T04:58:20.045Z,15.23
2022-10-30T04:59:20.033Z,15.22
2022-10-30T05:00:20.039Z,15.2
2022-10-30T05:01:20.139Z,15.18
2022-10-30T05:02:20.281Z,15.14
2022-10-30T05:03:20.036Z,15.08
2022-10-30T05:04:20.030Z,15.03
2022-10-30T05:05:20.014Z,14.97
2022-10-30T05:06:20.089Z,14.91
2022-10-30T05:07:20.023Z,14.89
2022-10-30T05:08:20.178Z,14.87
2022-10-30T05:09:20.215Z,14.89
2022-10-30T05:10:20.239Z,14.89
2022-10-30T05:11:20.429Z,14.91
2022-10-30T05:12:20.377Z,14.95
2022-10-30T05:13:20.656Z,14.99
2022-10-30T05:14:20.028Z,15.01
2022-10-30T05:15:20.038Z,15.02
2022-10-30T05:16:20.035Z,14.99
2022-10-30T05:17:20.105Z,14.96
2022-10-30T05:18:20.011Z,14.91
2022-10-30T05:19:20.043Z,14.86
2022-10-30T05:20:20.106Z,14.83
2022-10-30T05:21:20.035Z,14.79
2022-10-30T05:22:20.050Z,14.75
2022-10-30T05:23:20.036Z,14.7
2022-10-30T05:24:20.266Z,14.67
2022-10-30T05:25:20.039Z,14.64
2022-10-30T05:26:20.018Z,14.64
2022-10-30T05:27:20.265Z,14.68
2022-10-30T05:28:20.385Z,14.72
2022-10-30T05:29:20.093Z,14.76
2022-10-30T05:30:20.210Z,14.79
2022-10-30T05:31:20.028Z,14.8
2022-10-30T05:32:20.307Z,14.81
2022-10-30T05:33:20.175Z,14.81
2022-10-30T05:34:20.295Z,14.8
2022-10-30T05:35:20.026Z,14.8
2022-10-30T05:36:20.286Z,14.78
2022-10-30T05:37:20.037Z,14.78
2022-10-30T05:38:20.255Z,14.78
2022-10-30T05:39:20.042Z,14.79
2022-10-30T05:40:20.034Z,14.79
2022-10-30T05:41:20.045Z,14.8
2022-10-30T05:42:20.327Z,14.82
2022-10-30T05:43:20.037Z,14.86
2022-10-30T05:44:34.601Z,14.87
2022-10-30T05:45:20.178Z,14.9
2022-10-30T05:46:20.430Z,14.9
2022-10-30T05:47:20.059Z,14.9
2022-10-30T05:48:20.023Z,14.88
2022-10-30T05:49:20.071Z,14.84
2022-10-30T05:50:20.046Z,14.8
2022-10-30T05:51:20.048Z,14.74
2022-10-30T05:52:20.039Z,14.7
2022-10-30T05:53:20.021Z,14.64
2022-10-30T05:54:20.052Z,14.57
2022-10-30T05:55:20.019Z,14.51
2022-10-30T05:56:20.029Z,14.48
2022-10-30T05:57:20.039Z,14.44
2022-10-30T05:58:20.005Z,14.4
2022-10-30T05:59:20.063Z,14.4
2022-10-30T06:00:20.034Z,14.41
2022-10-30T06:01:20.131Z,14.44
2022-10-30T06:02:20.133Z,14.48
2022-10-30T06:03:20.034Z,14.56
2022-10-30T06:04:20.063Z,14.65
2022-10-30T06:05:20.037Z,14.71
2022-10-30T06:06:20.031Z,14.75
2022-10-30T06:07:20.041Z,14.78
2022-10-30T06:08:20.029Z,14.76
2022-10-30T06:09:20.073Z,14.73
2022-10-30T06:10:20.028Z,14.68
2022-10-30T06:11:20.028Z,14.62
2022-10-30T06:12:20.042Z,14.54
2022-10-30T06:13:20.056Z,14.46
2022-10-30T06:14:20.078Z,14.37
2022-10-30T06:15:20.030Z,14.29
2022-10-30T06:16:20.102Z,14.21
2022-10-30T06:17:20.032Z,14.16
2022-10-30T06:18:20.016Z,14.12
2022-10-30T06:19:20.036Z,14.09
2022-10-30T06:20:20.043Z,14.06
2022-10-30T06:21:20.035Z,14.03
2022-10-30T06:22:20.047Z,13.99
2022-10-30T06:23:20.047Z,13.96
2022-10-30T06:24:20.051Z,13.96
2022-10-30T06:25:20.024Z,13.93
2022-10-30T06:26:20.122Z,13.9
2022-10-30T06:27:20.041Z,13.86
2022-10-30T06:28:20.029Z,13.82
2022-10-30T06:29:20.035Z,13.78
2022-10-30T06:30:20.022Z,13.77
2022-10-30T06:31:23.038Z,13.82
2022-10-30T06:32:20.036Z,13.87
2022-10-30T06:33:20.031Z,13.91
2022-10-30T06:34:20.057Z,13.93
2022-10-30T06:35:20.050Z,13.96
2022-10-30T06:36:20.049Z,13.98
2022-10-30T06:37:20.083Z,13.99
2022-10-30T06:38:20.041Z,13.99
2022-10-30T06:39:20.045Z,13.98
2022-10-30T06:40:20.040Z,13.96
2022-10-30T06:41:20.030Z,13.95
2022-10-30T06:42:20.041Z,13.96
2022-10-30T06:43:19.998Z,13.97
2022-10-30T06:44:20.053Z,14.01
2022-10-30T06:45:20.052Z,14.08
2022-10-30T06:46:20.038Z,14.15
2022-10-30T06:47:20.044Z,14.21
2022-10-30T06:48:20.024Z,14.27
2022-10-30T06:49:20.051Z,14.34
2022-10-30T06:50:20.041Z,14.45
2022-10-30T06:51:20.039Z,14.51
2022-10-30T06:52:20.041Z,14.57
2022-10-30T06:53:20.040Z,14.62
2022-10-30T06:54:20.046Z,14.65
2022-10-30T06:55:20.045Z,14.69
2022-10-30T06:56:20.047Z,14.72
2022-10-30T06:57:20.038Z,14.75
2022-10-30T06:58:20.062Z,14.79
2022-10-30T06:59:20.040Z,14.82
2022-10-30T07:00:20.042Z,14.85
2022-10-30T07:01:20.198Z,14.86
2022-10-30T07:02:20.124Z,14.89
2022-10-30T07:03:20.249Z,14.9
2022-10-30T07:04:20.052Z,14.93
2022-10-30T07:05:20.324Z,14.97
2022-10-30T07:06:20.116Z,15.01
2022-10-30T07:07:20.457Z,15.07
2022-10-30T07:08:20.017Z,15.15
2022-10-30T07:09:20.132Z,15.21
2022-10-30T07:10:20.138Z,15.27
2022-10-30T07:11:20.031Z,15.32
2022-10-30T07:12:20.027Z,15.35
2022-10-30T07:13:20.164Z,15.37
2022-10-30T07:14:20.040Z,15.38
2022-10-30T07:15:20.230Z,15.4
2022-10-30T07:16:20.027Z,15.42
2022-10-30T07:17:20.037Z,15.48
2022-10-30T07:18:20.039Z,15.54
2022-10-30T07:19:20.047Z,15.6
2022-10-30T07:20:20.049Z,15.64
2022-10-30T07:21:20.162Z,15.7
2022-10-30T07:22:20.038Z,15.76
2022-10-30T07:23:20.178Z,15.81
2022-10-30T07:24:20.038Z,15.87
2022-10-30T07:25:20.040Z,15.92
2022-10-30T07:26:20.040Z,15.97
2022-10-30T07:27:20.040Z,16.01
2022-10-30T07:28:20.014Z,16.05
2022-10-30T07:29:20.040Z,16.07
2022-10-30T07:30:20.153Z,16.11
2022-10-30T07:31:28.889Z,16.16
2022-10-30T07:32:20.036Z,16.19
2022-10-30T07:33:20.215Z,16.24
2022-10-30T07:34:20.023Z,16.29
2022-10-30T07:35:20.061Z,16.34
2022-10-30T07:36:20.026Z,16.4
2022-10-30T07:37:20.036Z,16.48
2022-10-30T07:38:20.061Z,16.53
2022-10-30T07:39:20.036Z,16.59
2022-10-30T07:40:20.051Z,16.64
2022-10-30T07:41:20.028Z,16.71
2022-10-30T07:42:20.043Z,16.76
2022-10-30T07:43:20.078Z,16.82
2022-10-30T07:44:20.026Z,16.88
2022-10-30T07:45:23.071Z,16.97
2022-10-30T07:46:20.031Z,17.05
2022-10-30T07:47:20.029Z,17.11
2022-10-30T07:48:20.018Z,17.17
2022-10-30T07:49:20.032Z,17.22
2022-10-30T07:50:20.050Z,17.25
2022-10-30T07:51:20.031Z,17.29
2022-10-30T07:52:20.023Z,17.33
2022-10-30T07:53:20.101Z,17.36
2022-10-30T07:54:20.016Z,17.39
2022-10-30T07:55:20.040Z,17.43
2022-10-30T07:56:20.028Z,17.49
2022-10-30T07:57:21.109Z,17.52
2022-10-30T07:58:20.445Z,17.58
2022-10-30T07:59:20.558Z,17.65
2022-10-30T08:00:19.900Z,17.72
2022-10-30T08:01:20.307Z,17.79
2022-10-30T08:02:20.580Z,17.82
2022-10-30T08:03:20.675Z,17.84
2022-10-30T08:04:20.034Z,17.82
2022-10-30T08:05:20.041Z,17.84
2022-10-30T08:06:23.274Z,17.89
2022-10-30T08:07:20.033Z,17.96
2022-10-30T08:08:20.180Z,18.05
2022-10-30T08:09:20.055Z,18.15
2022-10-30T08:10:20.038Z,18.24
2022-10-30T08:11:20.050Z,18.3
2022-10-30T08:12:20.021Z,18.37
2022-10-30T08:13:20.271Z,18.44
2022-10-30T08:14:20.048Z,18.45
2022-10-30T08:15:20.242Z,18.45
2022-10-30T08:16:20.145Z,18.38
2022-10-30T08:17:20.267Z,18.36
2022-10-30T08:18:20.100Z,18.37
2022-10-30T08:19:20.356Z,18.42
2022-10-30T08:20:20.681Z,18.45
2022-10-30T08:21:20.033Z,18.52
2022-10-30T08:22:20.035Z,18.6
2022-10-30T08:23:20.172Z,18.66
2022-10-30T08:24:20.047Z,18.73
2022-10-30T08:25:20.039Z,18.78
2022-10-30T08:26:20.040Z,18.85
2022-10-30T08:27:20.037Z,18.93
2022-10-30T08:28:20.161Z,19.01
2022-10-30T08:29:20.070Z,19.1
2022-10-30T08:30:20.045Z,19.19
2022-10-30T08:31:20.143Z,19.25
2022-10-30T08:32:20.169Z,19.27
2022-10-30T08:33:20.032Z,19.3
2022-10-30T08:34:20.062Z,19.34
2022-10-30T08:35:21.139Z,19.4
2022-10-30T08:36:20.027Z,19.47
2022-10-30T08:37:20.034Z,19.54
2022-10-30T08:38:20.050Z,19.59
2022-10-30T08:39:20.112Z,19.63
2022-10-30T08:40:20.026Z,19.7
2022-10-30T08:41:20.201Z,19.77
2022-10-30T08:42:20.105Z,19.82
2022-10-30T08:43:20.349Z,19.89
2022-10-30T08:44:20.947Z,19.99
2022-10-30T08:45:20.024Z,20.07
2022-10-30T08:46:20.368Z,20.14
2022-10-30T08:47:20.608Z,20.13
2022-10-30T08:48:20.280Z,20.11
2022-10-30T08:49:20.574Z,20.12
2022-10-30T08:50:23.083Z,20.16
2022-10-30T08:51:20.028Z,20.21
2022-10-30T08:52:20.189Z,20.22
2022-10-30T08:53:20.041Z,20.27
2022-10-30T08:54:20.039Z,20.34
2022-10-30T08:55:20.176Z,20.4
2022-10-30T08:56:20.271Z,20.35
2022-10-30T08:57:20.043Z,20.33
2022-10-30T08:58:20.025Z,20.3
2022-10-30T08:59:21.567Z,20.33
2022-10-30T09:00:20.354Z,20.32
2022-10-30T09:01:20.287Z,20.33
2022-10-30T09:02:20.200Z,20.36
2022-10-30T09:03:20.032Z,20.34
2022-10-30T09:04:20.092Z,20.34
2022-10-30T09:05:20.056Z,20.35
2022-10-30T09:06:20.148Z,20.35
2022-10-30T09:07:20.097Z,20.35
2022-10-30T09:08:20.031Z,20.33
2022-10-30T09:09:20.052Z,20.33
2022-10-30T09:10:20.024Z,20.3
2022-10-30T09:11:20.032Z,20.31
2022-10-30T09:12:20.030Z,20.35
2022-10-30T09:13:20.032Z,20.39
2022-10-30T09:14:20.033Z,20.47
2022-10-30T09:15:20.041Z,20.47
2022-10-30T09:16:20.040Z,20.42
2022-10-30T09:17:20.084Z,20.43
2022-10-30T09:18:20.175Z,20.44
2022-10-30T09:19:20.022Z,20.51
2022-10-30T09:20:20.035Z,20.59
2022-10-30T09:21:20.028Z,20.64
2022-10-30T09:22:20.041Z,20.72
2022-10-30T09:23:20.054Z,20.79
2022-10-30T09:24:20.025Z,20.89
2022-10-30T09:25:20.035Z,20.94
2022-10-30T09:26:21.081Z,20.96
2022-10-30T09:27:20.034Z,21.03
2022-10-30T09:28:20.134Z,21.09
2022-10-30T09:29:20.080Z,21.18
2022-10-30T09:30:20.028Z,21.28
2022-10-30T09:31:20.032Z,21.38
2022-10-30T09:32:20.032Z,21.46
2022-10-30T09:33:20.039Z,21.52
2022-10-30T09:34:20.083Z,21.55
2022-10-30T09:35:20.029Z,21.61
2022-10-30T09:36:23.034Z,21.69
2022-10-30T09:37:20.028Z,21.77
2022-10-30T09:38:20.040Z,21.81
2022-10-30T09:39:20.069Z,21.84
2022-10-30T09:40:20.053Z,21.86
2022-10-30T09:41:20.140Z,21.91
2022-10-30T09:42:20.032Z,22.01
2022-10-30T09:43:20.029Z,22.06
2022-10-30T09:44:20.062Z,22.05
2022-10-30T09:45:29.026Z,22.08
2022-10-30T09:46:20.041Z,22.13
2022-10-30T09:47:23.449Z,22.13
2022-10-30T09:48:20.029Z,22.1
2022-10-30T09:49:20.051Z,22.16
2022-10-30T09:50:20.036Z,22.25
2022-10-30T09:51:20.056Z,22.35
2022-10-30T09:52:20.033Z,22.5
2022-10-30T09:53:20.030Z,22.59
2022-10-30T09:54:20.052Z,22.7
2022-10-30T09:55:20.025Z,22.79
2022-10-30T09:56:20.035Z,22.83
2022-10-30T09:57:20.022Z,22.87
2022-10-30T09:58:20.051Z,22.91
2022-10-30T09:59:20.049Z,22.98
2022-10-30T10:00:20.021Z,23
2022-10-30T10:01:20.126Z,22.87
2022-10-30T10:02:20.261Z,22.92
2022-10-30T10:03:20.134Z,22.93
2022-10-30T10:04:25.520Z,22.98
2022-10-30T10:05:20.031Z,23.11
2022-10-30T10:06:20.042Z,23.27
2022-10-30T10:07:20.035Z,23.41
2022-10-30T10:08:20.052Z,23.58
2022-10-30T10:09:20.039Z,23.81
2022-10-30T10:10:20.098Z,23.97
2022-10-30T10:11:20.024Z,24.11
2022-10-30T10:12:20.026Z,24.25
2022-10-30T10:13:20.377Z,24.46
2022-10-30T10:14:20.079Z,24.59
2022-10-30T10:15:20.323Z,24.7
2022-10-30T10:16:20.153Z,24.41
2022-10-30T10:17:20.433Z,24.09
2022-10-30T10:18:20.798Z,23.74
2022-10-30T10:19:20.373Z,23.6
2022-10-30T10:20:20.097Z,23.48
2022-10-30T10:21:20.320Z,23.44
2022-10-30T10:22:20.041Z,23.6
2022-10-30T10:23:20.030Z,23.82
2022-10-30T10:24:21.334Z,23.92
2022-10-30T10:25:20.034Z,24.01
2022-10-30T10:26:20.042Z,24.21
2022-10-30T10:27:20.051Z,24.32
2022-10-30T10:28:20.030Z,24.48
2022-10-30T10:29:20.040Z,24.69
2022-10-30T10:30:20.031Z,24.94
2022-10-30T10:31:20.076Z,25.12
2022-10-30T10:32:20.028Z,25.08
2022-10-30T10:33:20.110Z,25.09
2022-10-30T10:34:20.025Z,25.16
2022-10-30T10:35:20.027Z,25.11
2022-10-30T10:36:20.048Z,25.12
2022-10-30T10:37:20.157Z,25.07
2022-10-30T10:38:20.024Z,24.98
2022-10-30T10:39:20.025Z,25.02
2022-10-30T10:40:20.029Z,25.03
2022-10-30T10:41:20.039Z,25.04
2022-10-30T10:42:20.045Z,25.09
2022-10-30T10:43:20.039Z,25.23
2022-10-30T10:44:20.036Z,25.43
2022-10-30T10:45:20.032Z,25.64
2022-10-30T10:46:20.034Z,25.87
2022-10-30T10:47:20.038Z,26.01
2022-10-30T10:48:20.038Z,26.06
2022-10-30T10:49:20.034Z,26.1
2022-10-30T10:50:20.045Z,26.21
2022-10-30T10:51:20.118Z,26.33
2022-10-30T10:52:20.027Z,26.52
2022-10-30T10:53:20.043Z,26.72
2022-10-30T10:54:20.036Z,26.94
2022-10-30T10:55:20.024Z,27.2
2022-10-30T10:56:20.029Z,27.38
2022-10-30T10:57:20.034Z,27.45
2022-10-30T10:58:20.044Z,27.5
2022-10-30T10:59:20.032Z,27.53
2022-10-30T11:00:20.038Z,27.43
2022-10-30T11:01:20.299Z,27.37
2022-10-30T11:02:20.112Z,27.36
2022-10-30T11:03:20.049Z,27.4
2022-10-30T11:04:20.040Z,27.38
2022-10-30T11:05:20.047Z,27.49
2022-10-30T11:06:20.029Z,27.62
2022-10-30T11:07:20.031Z,27.67
2022-10-30T11:08:20.053Z,27.77
2022-10-30T11:09:20.013Z,27.95
2022-10-30T11:10:20.093Z,28.13
2022-10-30T11:11:20.048Z,28.26
2022-10-30T11:12:21.104Z,28.37
2022-10-30T11:13:20.446Z,28.52
2022-10-30T11:14:20.749Z,28.53
2022-10-30T11:15:19.898Z,28.37
2022-10-30T11:16:20.112Z,28.25
2022-10-30T11:17:20.329Z,28.3
2022-10-30T11:18:20.680Z,28.19
2022-10-30T11:19:20.039Z,28.17
2022-10-30T11:20:20.103Z,27.91
2022-10-30T11:21:20.281Z,27.71
2022-10-30T11:22:20.323Z,27.73
2022-10-30T11:23:20.330Z,27.85
2022-10-30T11:24:20.271Z,27.98
2022-10-30T11:25:20.632Z,28.09
2022-10-30T11:26:20.981Z,28.2
2022-10-30T11:27:20.034Z,28.35
2022-10-30T11:28:20.052Z,28.51
2022-10-30T11:29:20.043Z,28.54
2022-10-30T11:30:20.194Z,28.54
2022-10-30T11:31:20.043Z,28.39
2022-10-30T11:32:20.033Z,27.95
2022-10-30T11:33:20.059Z,27.98
2022-10-30T11:34:20.056Z,28.13
2022-10-30T11:35:20.044Z,28.21
2022-10-30T11:36:20.045Z,28.31
2022-10-30T11:37:20.034Z,28.09
2022-10-30T11:38:20.058Z,27.75
2022-10-30T11:39:20.051Z,27.42
2022-10-30T11:40:20.113Z,26.64
2022-10-30T11:41:20.027Z,26.23
2022-10-30T11:42:20.026Z,25.97
2022-10-30T11:43:20.076Z,25.81
2022-10-30T11:44:20.075Z,25.98
2022-10-30T11:45:20.038Z,25.79
2022-10-30T11:46:20.036Z,25.7
2022-10-30T11:47:20.055Z,25.29
2022-10-30T11:48:20.579Z,25.09
2022-10-30T11:49:20.063Z,25.11
2022-10-30T11:50:20.037Z,25.23
2022-10-30T11:51:20.100Z,25.26
2022-10-30T11:52:20.031Z,25
2022-10-30T11:53:20.249Z,25.15
2022-10-30T11:54:20.130Z,25.09
2022-10-30T11:55:20.034Z,25.12
2022-10-30T11:56:20.306Z,24.94
2022-10-30T11:57:20.359Z,24.65
2022-10-30T11:58:20.643Z,24.7
2022-10-30T11:59:20.146Z,24.83
2022-10-30T12:00:20.845Z,25.05
2022-10-30T12:01:20.157Z,25.19
2022-10-30T12:02:20.589Z,25.4
2022-10-30T12:03:20.131Z,25.64
2022-10-30T12:04:20.353Z,25.82
2022-10-30T12:05:20.076Z,26.03
2022-10-30T12:06:20.356Z,25.93
2022-10-30T12:07:20.041Z,25.78
2022-10-30T12:08:20.084Z,25.77
2022-10-30T12:09:20.068Z,25.54
2022-10-30T12:10:20.119Z,25.37
2022-10-30T12:11:20.254Z,25.44
2022-10-30T12:12:20.030Z,25.61
2022-10-30T12:13:20.179Z,25.58
2022-10-30T12:14:20.230Z,25.61
2022-10-30T12:15:20.043Z,25.61
2022-10-30T12:16:20.057Z,25.85
2022-10-30T12:17:20.068Z,25.89
2022-10-30T12:18:20.094Z,25.42
2022-10-30T12:19:20.057Z,25.33
2022-10-30T12:20:20.217Z,25.44
2022-10-30T12:21:20.047Z,25.53
2022-10-30T12:22:20.028Z,25.56
2022-10-30T12:23:20.040Z,25.64
2022-10-30T12:24:20.041Z,25.55
2022-10-30T12:25:20.030Z,25.43
2022-10-30T12:26:20.033Z,25.5
2022-10-30T12:27:23.041Z,25.66
2022-10-30T12:28:20.020Z,25.85
2022-10-30T12:29:20.027Z,26.18
2022-10-30T12:30:20.045Z,26.21
2022-10-30T12:31:20.041Z,26.49
2022-10-30T12:32:20.041Z,26.48
2022-10-30T12:33:20.043Z,26.54
2022-10-30T12:34:20.059Z,26.57
2022-10-30T12:35:20.034Z,26.58
2022-10-30T12:36:20.029Z,26.83
2022-10-30T12:37:20.025Z,27.08
2022-10-30T12:38:20.026Z,27.31
2022-10-30T12:39:20.030Z,27.58
2022-10-30T12:40:20.037Z,27.83
2022-10-30T12:41:20.025Z,27.93
2022-10-30T12:42:20.027Z,27.67
2022-10-30T12:43:20.038Z,27.61
2022-10-30T12:44:20.049Z,27.64
2022-10-30T12:45:20.037Z,27.23
2022-10-30T12:46:20.027Z,26.68
2022-10-30T12:47:20.023Z,26.38
2022-10-30T12:48:20.040Z,26.11
2022-10-30T12:49:20.045Z,25.86
2022-10-30T12:50:20.042Z,25.25
2022-10-30T12:51:24.004Z,25.12
2022-10-30T12:52:20.040Z,24.94
2022-10-30T12:53:20.031Z,25.2
2022-10-30T12:54:20.036Z,25.31
2022-10-30T12:55:20.055Z,25.34